sensor_id;sensor_type;location;lat;lon;timestamp;temperature;humidity
12720;DHT22;6424;48.520;11.228;2022-07-05T00:01:02;19.10;99.90
12720;DHT22;6424;48.520;11.228;2022-07-05T00:03:43;19.00;99.90
12720;DHT22;6424;48.520;11.228;2022-07-05T00:06:24;19.00;99.90
12720;DHT22;6424;48.520;11.228;2022-07-05T00:09:05;18.90;99.90
12720;DHT22;6424;48.520;11.228;2022-07-05T00:11:45;18.90;99.90
12720;DHT22;6424;48.520;11.228;2022-07-05T00:14:26;18.80;99.90
12720;DHT22;6424;48.520;11.228;2022-07-05T00:17:08;18.80;99.90
12720;DHT22;6424;48.520;11.228;2022-07-05T00:19:48;18.80;99.90
12720;DHT22;6424;48.520;11.228;2022-07-05T00:22:29;18.80;99.90
12720;DHT22;6424;48.520;11.228;2022-07-05T00:25:10;18.70;99.90
12720;DHT22;6424;48.520;11.228;2022-07-05T00:27:51;18.70;99.90
12720;DHT22;6424;48.520;11.228;2022-07-05T00:30:33;18.70;99.90
12720;DHT22;6424;48.520;11.228;2022-07-05T00:33:14;18.70;99.90
12720;DHT22;6424;48.520;11.228;2022-07-05T00:35:55;18.70;99.90
12720;DHT22;6424;48.520;11.228;2022-07-05T00:38:36;18.60;99.90
12720;DHT22;6424;48.520;11.228;2022-07-05T00:41:17;18.60;99.90
12720;DHT22;6424;48.520;11.228;2022-07-05T00:44:00;18.60;99.90
12720;DHT22;6424;48.520;11.228;2022-07-05T00:46:43;18.60;99.90
12720;DHT22;6424;48.520;11.228;2022-07-05T00:49:24;18.60;99.90
12720;DHT22;6424;48.520;11.228;2022-07-05T00:52:06;18.60;99.90
12720;DHT22;6424;48.520;11.228;2022-07-05T00:54:48;18.50;99.90
12720;DHT22;6424;48.520;11.228;2022-07-05T00:57:14;18.50;99.90
12720;DHT22;6424;48.520;11.228;2022-07-05T00:59:55;18.50;99.90
12720;DHT22;6424;48.520;11.228;2022-07-05T01:02:36;18.50;99.90
12720;DHT22;6424;48.520;11.228;2022-07-05T01:05:17;18.40;99.90
12720;DHT22;6424;48.520;11.228;2022-07-05T01:07:43;18.40;99.90
12720;DHT22;6424;48.520;11.228;2022-07-05T01:10:09;18.30;99.90
12720;DHT22;6424;48.520;11.228;2022-07-05T01:12:50;18.20;99.90
12720;DHT22;6424;48.520;11.228;2022-07-05T01:15:31;18.20;99.90
12720;DHT22;6424;48.520;11.228;2022-07-05T01:17:58;18.10;99.90
12720;DHT22;6424;48.520;11.228;2022-07-05T01:20:39;18.10;99.90
12720;DHT22;6424;48.520;11.228;2022-07-05T01:23:22;18.00;99.90
12720;DHT22;6424;48.520;11.228;2022-07-05T01:26:03;18.00;99.90
12720;DHT22;6424;48.520;11.228;2022-07-05T01:28:44;18.00;99.90
12720;DHT22;6424;48.520;11.228;2022-07-05T01:31:25;17.90;99.90
12720;DHT22;6424;48.520;11.228;2022-07-05T01:34:07;17.90;99.90
12720;DHT22;6424;48.520;11.228;2022-07-05T01:36:48;17.80;99.90
12720;DHT22;6424;48.520;11.228;2022-07-05T01:39:30;17.70;99.90
12720;DHT22;6424;48.520;11.228;2022-07-05T01:42:11;17.70;99.90
12720;DHT22;6424;48.520;11.228;2022-07-05T01:44:52;17.60;99.90
12720;DHT22;6424;48.520;11.228;2022-07-05T01:47:38;17.60;99.90
12720;DHT22;6424;48.520;11.228;2022-07-05T01:50:21;17.50;99.90
12720;DHT22;6424;48.520;11.228;2022-07-05T01:53:03;17.50;99.90
12720;DHT22;6424;48.520;11.228;2022-07-05T01:55:45;17.40;99.90
12720;DHT22;6424;48.520;11.228;2022-07-05T01:58:27;17.40;99.90
12720;DHT22;6424;48.520;11.228;2022-07-05T02:01:09;17.40;99.90
12720;DHT22;6424;48.520;11.228;2022-07-05T02:03:50;17.30;99.90
12720;DHT22;6424;48.520;11.228;2022-07-05T02:06:32;17.30;99.90
12720;DHT22;6424;48.520;11.228;2022-07-05T02:09:14;17.30;99.90
12720;DHT22;6424;48.520;11.228;2022-07-05T02:11:55;17.30;99.90
12720;DHT22;6424;48.520;11.228;2022-07-05T02:14:36;17.20;99.90
12720;DHT22;6424;48.520;11.228;2022-07-05T02:17:17;17.10;99.90
12720;DHT22;6424;48.520;11.228;2022-07-05T02:19:58;17.10;99.90
12720;DHT22;6424;48.520;11.228;2022-07-05T02:22:39;17.10;99.90
12720;DHT22;6424;48.520;11.228;2022-07-05T02:25:20;17.10;99.90
12720;DHT22;6424;48.520;11.228;2022-07-05T02:28:01;17.10;99.90
12720;DHT22;6424;48.520;11.228;2022-07-05T02:30:42;17.10;99.90
12720;DHT22;6424;48.520;11.228;2022-07-05T02:33:23;17.10;99.90
12720;DHT22;6424;48.520;11.228;2022-07-05T02:36:13;17.10;99.90
12720;DHT22;6424;48.520;11.228;2022-07-05T02:38:54;17.10;99.90
12720;DHT22;6424;48.520;11.228;2022-07-05T02:41:35;17.10;99.90
12720;DHT22;6424;48.520;11.228;2022-07-05T02:44:01;17.10;99.90
12720;DHT22;6424;48.520;11.228;2022-07-05T02:46:42;17.00;99.90
12720;DHT22;6424;48.520;11.228;2022-07-05T02:49:22;17.00;99.90
12720;DHT22;6424;48.520;11.228;2022-07-05T02:52:03;17.00;99.90
12720;DHT22;6424;48.520;11.228;2022-07-05T02:54:44;17.00;99.90
12720;DHT22;6424;48.520;11.228;2022-07-05T02:57:25;17.00;99.90
12720;DHT22;6424;48.520;11.228;2022-07-05T03:00:07;16.90;99.90
12720;DHT22;6424;48.520;11.228;2022-07-05T03:02:33;16.90;99.90
12720;DHT22;6424;48.520;11.228;2022-07-05T03:05:14;16.90;99.90
12720;DHT22;6424;48.520;11.228;2022-07-05T03:07:55;16.90;99.90
12720;DHT22;6424;48.520;11.228;2022-07-05T03:10:36;16.90;99.90
12720;DHT22;6424;48.520;11.228;2022-07-05T03:13:17;16.90;99.90
12720;DHT22;6424;48.520;11.228;2022-07-05T03:15:58;16.90;99.90
12720;DHT22;6424;48.520;11.228;2022-07-05T03:18:39;16.90;99.90
12720;DHT22;6424;48.520;11.228;2022-07-05T03:21:19;16.90;99.90
12720;DHT22;6424;48.520;11.228;2022-07-05T03:24:00;16.90;99.90
12720;DHT22;6424;48.520;11.228;2022-07-05T03:26:41;16.90;99.90
12720;DHT22;6424;48.520;11.228;2022-07-05T03:29:22;16.80;99.90
12720;DHT22;6424;48.520;11.228;2022-07-05T03:31:48;16.80;99.90
12720;DHT22;6424;48.520;11.228;2022-07-05T03:34:29;16.80;99.90
12720;DHT22;6424;48.520;11.228;2022-07-05T03:37:09;16.80;99.90
12720;DHT22;6424;48.520;11.228;2022-07-05T03:39:50;16.80;99.90
12720;DHT22;6424;48.520;11.228;2022-07-05T03:42:31;16.80;99.90
12720;DHT22;6424;48.520;11.228;2022-07-05T03:45:12;16.80;99.90
12720;DHT22;6424;48.520;11.228;2022-07-05T03:47:58;16.80;99.90
12720;DHT22;6424;48.520;11.228;2022-07-05T03:50:39;16.80;99.90
12720;DHT22;6424;48.520;11.228;2022-07-05T03:53:22;16.80;99.90
12720;DHT22;6424;48.520;11.228;2022-07-05T03:56:02;16.90;99.90
12720;DHT22;6424;48.520;11.228;2022-07-05T03:58:43;16.90;99.90
12720;DHT22;6424;48.520;11.228;2022-07-05T04:01:24;17.00;99.90
12720;DHT22;6424;48.520;11.228;2022-07-05T04:04:06;17.00;99.90
12720;DHT22;6424;48.520;11.228;2022-07-05T04:06:47;17.10;99.90
12720;DHT22;6424;48.520;11.228;2022-07-05T04:09:13;17.20;99.90
12720;DHT22;6424;48.520;11.228;2022-07-05T04:11:39;17.30;99.90
12720;DHT22;6424;48.520;11.228;2022-07-05T04:14:21;17.40;99.90
12720;DHT22;6424;48.520;11.228;2022-07-05T04:17:02;17.70;99.90
12720;DHT22;6424;48.520;11.228;2022-07-05T04:19:43;18.30;99.90
12720;DHT22;6424;48.520;11.228;2022-07-05T04:22:25;19.20;99.90
12720;DHT22;6424;48.520;11.228;2022-07-05T04:25:06;20.10;99.90
12720;DHT22;6424;48.520;11.228;2022-07-05T04:27:59;21.10;99.90
12720;DHT22;6424;48.520;11.228;2022-07-05T04:30:40;22.10;99.90
12720;DHT22;6424;48.520;11.228;2022-07-05T04:33:22;22.90;99.90
12720;DHT22;6424;48.520;11.228;2022-07-05T04:36:03;23.70;99.90
12720;DHT22;6424;48.520;11.228;2022-07-05T04:38:44;24.40;99.90
12720;DHT22;6424;48.520;11.228;2022-07-05T04:41:10;25.00;99.90
12720;DHT22;6424;48.520;11.228;2022-07-05T04:43:50;25.60;99.90
12720;DHT22;6424;48.520;11.228;2022-07-05T04:46:31;26.00;99.90
12720;DHT22;6424;48.520;11.228;2022-07-05T04:49:12;26.40;99.90
12720;DHT22;6424;48.520;11.228;2022-07-05T04:51:53;26.80;99.90
12720;DHT22;6424;48.520;11.228;2022-07-05T04:54:36;27.10;99.90
12720;DHT22;6424;48.520;11.228;2022-07-05T04:57:17;27.30;99.90
12720;DHT22;6424;48.520;11.228;2022-07-05T04:59:58;27.70;99.90
12720;DHT22;6424;48.520;11.228;2022-07-05T05:02:39;27.90;99.90
12720;DHT22;6424;48.520;11.228;2022-07-05T05:05:20;28.00;99.90
12720;DHT22;6424;48.520;11.228;2022-07-05T05:08:01;28.10;99.90
12720;DHT22;6424;48.520;11.228;2022-07-05T05:10:42;28.30;99.90
12720;DHT22;6424;48.520;11.228;2022-07-05T05:13:08;28.20;99.90
12720;DHT22;6424;48.520;11.228;2022-07-05T05:15:48;28.30;99.90
12720;DHT22;6424;48.520;11.228;2022-07-05T05:18:14;28.40;99.90
12720;DHT22;6424;48.520;11.228;2022-07-05T05:20:55;28.30;99.90
12720;DHT22;6424;48.520;11.228;2022-07-05T05:23:36;28.20;99.90
12720;DHT22;6424;48.520;11.228;2022-07-05T05:26:02;28.40;99.90
12720;DHT22;6424;48.520;11.228;2022-07-05T05:28:43;28.40;99.90
12720;DHT22;6424;48.520;11.228;2022-07-05T05:31:24;28.50;99.90
12720;DHT22;6424;48.520;11.228;2022-07-05T05:34:04;28.50;99.90
12720;DHT22;6424;48.520;11.228;2022-07-05T05:36:45;28.30;98.80
12720;DHT22;6424;48.520;11.228;2022-07-05T05:39:13;28.10;96.40
12720;DHT22;6424;48.520;11.228;2022-07-05T05:41:53;28.00;97.70
12720;DHT22;6424;48.520;11.228;2022-07-05T05:44:34;28.00;98.10
12720;DHT22;6424;48.520;11.228;2022-07-05T05:47:15;28.10;96.90
12720;DHT22;6424;48.520;11.228;2022-07-05T05:49:56;28.10;97.60
12720;DHT22;6424;48.520;11.228;2022-07-05T05:52:22;28.20;97.30
12720;DHT22;6424;48.520;11.228;2022-07-05T05:55:03;28.00;94.90
12720;DHT22;6424;48.520;11.228;2022-07-05T05:57:33;27.70;96.80
12720;DHT22;6424;48.520;11.228;2022-07-05T06:00:15;27.50;96.10
12720;DHT22;6424;48.520;11.228;2022-07-05T06:02:56;27.40;95.10
12720;DHT22;6424;48.520;11.228;2022-07-05T06:05:36;27.10;92.70
12720;DHT22;6424;48.520;11.228;2022-07-05T06:08:17;26.80;93.60
12720;DHT22;6424;48.520;11.228;2022-07-05T06:10:58;26.40;94.90
12720;DHT22;6424;48.520;11.228;2022-07-05T06:13:39;26.30;96.70
12720;DHT22;6424;48.520;11.228;2022-07-05T06:16:20;26.30;94.50
12720;DHT22;6424;48.520;11.228;2022-07-05T06:19:01;26.20;94.90
12720;DHT22;6424;48.520;11.228;2022-07-05T06:21:42;26.20;96.10
12720;DHT22;6424;48.520;11.228;2022-07-05T06:24:08;26.00;92.20
12720;DHT22;6424;48.520;11.228;2022-07-05T06:26:49;25.70;94.50
12720;DHT22;6424;48.520;11.228;2022-07-05T06:29:30;25.60;91.80
12720;DHT22;6424;48.520;11.228;2022-07-05T06:32:11;25.30;90.40
12720;DHT22;6424;48.520;11.228;2022-07-05T06:34:51;25.10;90.30
12720;DHT22;6424;48.520;11.228;2022-07-05T06:37:46;24.80;92.60
12720;DHT22;6424;48.520;11.228;2022-07-05T06:40:29;24.50;94.00
12720;DHT22;6424;48.520;11.228;2022-07-05T06:43:12;24.40;96.20
12720;DHT22;6424;48.520;11.228;2022-07-05T06:45:53;24.40;95.00
12720;DHT22;6424;48.520;11.228;2022-07-05T06:48:35;24.50;91.90
12720;DHT22;6424;48.520;11.228;2022-07-05T06:51:16;24.40;92.50
12720;DHT22;6424;48.520;11.228;2022-07-05T06:53:57;24.30;95.00
12720;DHT22;6424;48.520;11.228;2022-07-05T06:56:38;24.40;97.90
12720;DHT22;6424;48.520;11.228;2022-07-05T06:59:19;24.70;91.60
12720;DHT22;6424;48.520;11.228;2022-07-05T07:02:00;24.80;92.00
12720;DHT22;6424;48.520;11.228;2022-07-05T07:04:40;24.90;92.30
12720;DHT22;6424;48.520;11.228;2022-07-05T07:07:21;24.90;90.20
12720;DHT22;6424;48.520;11.228;2022-07-05T07:10:20;24.70;92.20
12720;DHT22;6424;48.520;11.228;2022-07-05T07:13:02;24.70;93.80
12720;DHT22;6424;48.520;11.228;2022-07-05T07:15:43;24.90;93.20
12720;DHT22;6424;48.520;11.228;2022-07-05T07:18:24;25.10;92.50
12720;DHT22;6424;48.520;11.228;2022-07-05T07:21:05;25.30;94.80
12720;DHT22;6424;48.520;11.228;2022-07-05T07:23:45;25.50;90.40
12720;DHT22;6424;48.520;11.228;2022-07-05T07:26:26;25.60;92.20
12720;DHT22;6424;48.520;11.228;2022-07-05T07:29:07;25.70;90.10
12720;DHT22;6424;48.520;11.228;2022-07-05T07:31:48;25.60;83.70
12720;DHT22;6424;48.520;11.228;2022-07-05T07:34:29;25.30;86.70
12720;DHT22;6424;48.520;11.228;2022-07-05T07:37:10;25.20;83.20
12720;DHT22;6424;48.520;11.228;2022-07-05T07:39:39;25.20;87.90
12720;DHT22;6424;48.520;11.228;2022-07-05T07:42:20;25.30;88.60
12720;DHT22;6424;48.520;11.228;2022-07-05T07:45:02;25.60;90.90
12720;DHT22;6424;48.520;11.228;2022-07-05T07:47:44;25.90;87.90
12720;DHT22;6424;48.520;11.228;2022-07-05T07:50:25;26.10;89.90
12720;DHT22;6424;48.520;11.228;2022-07-05T07:53:06;26.00;79.90
12720;DHT22;6424;48.520;11.228;2022-07-05T07:55:48;26.00;83.40
12720;DHT22;6424;48.520;11.228;2022-07-05T07:58:29;26.00;77.60
12720;DHT22;6424;48.520;11.228;2022-07-05T08:01:10;26.10;78.00
12720;DHT22;6424;48.520;11.228;2022-07-05T08:03:52;26.30;81.40
12720;DHT22;6424;48.520;11.228;2022-07-05T08:06:33;26.20;77.90
12720;DHT22;6424;48.520;11.228;2022-07-05T08:09:13;26.40;79.50
12720;DHT22;6424;48.520;11.228;2022-07-05T08:11:54;26.50;75.10
12720;DHT22;6424;48.520;11.228;2022-07-05T08:14:35;26.60;76.60
12720;DHT22;6424;48.520;11.228;2022-07-05T08:17:16;26.70;70.90
12720;DHT22;6424;48.520;11.228;2022-07-05T08:19:57;26.80;68.90
12720;DHT22;6424;48.520;11.228;2022-07-05T08:22:56;26.70;70.80
12720;DHT22;6424;48.520;11.228;2022-07-05T08:25:37;26.70;70.00
12720;DHT22;6424;48.520;11.228;2022-07-05T08:28:18;26.70;71.10
12720;DHT22;6424;48.520;11.228;2022-07-05T08:30:59;26.50;67.00
12720;DHT22;6424;48.520;11.228;2022-07-05T08:33:39;26.20;66.80
12720;DHT22;6424;48.520;11.228;2022-07-05T08:36:20;26.00;68.00
12720;DHT22;6424;48.520;11.228;2022-07-05T08:39:02;26.10;66.60
12720;DHT22;6424;48.520;11.228;2022-07-05T08:41:50;26.00;63.00
12720;DHT22;6424;48.520;11.228;2022-07-05T08:44:33;25.90;62.10
12720;DHT22;6424;48.520;11.228;2022-07-05T08:47:19;25.80;64.80
12720;DHT22;6424;48.520;11.228;2022-07-05T08:50:02;25.70;64.30
12720;DHT22;6424;48.520;11.228;2022-07-05T08:52:43;25.70;62.10
12720;DHT22;6424;48.520;11.228;2022-07-05T08:55:25;25.80;64.50
12720;DHT22;6424;48.520;11.228;2022-07-05T08:58:07;25.90;62.80
12720;DHT22;6424;48.520;11.228;2022-07-05T09:00:47;25.60;61.20
12720;DHT22;6424;48.520;11.228;2022-07-05T09:03:42;25.40;63.30
12720;DHT22;6424;48.520;11.228;2022-07-05T09:06:25;25.50;63.00
12720;DHT22;6424;48.520;11.228;2022-07-05T09:09:07;25.90;68.70
12720;DHT22;6424;48.520;11.228;2022-07-05T09:11:48;26.30;60.80
12720;DHT22;6424;48.520;11.228;2022-07-05T09:14:29;26.00;59.50
12720;DHT22;6424;48.520;11.228;2022-07-05T09:17:10;25.90;58.80
12720;DHT22;6424;48.520;11.228;2022-07-05T09:20:13;26.00;58.60
12720;DHT22;6424;48.520;11.228;2022-07-05T09:22:56;26.10;59.60
12720;DHT22;6424;48.520;11.228;2022-07-05T09:25:36;26.10;58.30
12720;DHT22;6424;48.520;11.228;2022-07-05T09:28:18;26.10;58.80
12720;DHT22;6424;48.520;11.228;2022-07-05T09:30:59;26.20;59.80
12720;DHT22;6424;48.520;11.228;2022-07-05T09:33:48;26.40;58.30
12720;DHT22;6424;48.520;11.228;2022-07-05T09:36:15;26.70;61.60
12720;DHT22;6424;48.520;11.228;2022-07-05T09:38:56;27.00;58.70
12720;DHT22;6424;48.520;11.228;2022-07-05T09:41:37;27.10;56.40
12720;DHT22;6424;48.520;11.228;2022-07-05T09:44:24;27.20;58.30
12720;DHT22;6424;48.520;11.228;2022-07-05T09:47:17;27.30;57.60
12720;DHT22;6424;48.520;11.228;2022-07-05T09:49:59;27.40;55.90
12720;DHT22;6424;48.520;11.228;2022-07-05T09:52:47;27.70;57.70
12720;DHT22;6424;48.520;11.228;2022-07-05T09:55:28;27.90;56.40
12720;DHT22;6424;48.520;11.228;2022-07-05T09:57:54;28.00;56.60
12720;DHT22;6424;48.520;11.228;2022-07-05T10:00:35;28.10;55.10
12720;DHT22;6424;48.520;11.228;2022-07-05T10:03:15;28.30;54.60
12720;DHT22;6424;48.520;11.228;2022-07-05T10:06:09;28.30;55.90
12720;DHT22;6424;48.520;11.228;2022-07-05T10:08:51;28.30;55.80
12720;DHT22;6424;48.520;11.228;2022-07-05T10:11:32;27.90;56.00
12720;DHT22;6424;48.520;11.228;2022-07-05T10:14:20;27.00;54.70
12720;DHT22;6424;48.520;11.228;2022-07-05T10:17:02;26.70;57.20
12720;DHT22;6424;48.520;11.228;2022-07-05T10:19:33;26.80;56.20
12720;DHT22;6424;48.520;11.228;2022-07-05T10:22:17;27.10;56.60
12720;DHT22;6424;48.520;11.228;2022-07-05T10:25:00;27.50;57.30
12720;DHT22;6424;48.520;11.228;2022-07-05T10:27:42;27.70;56.00
12720;DHT22;6424;48.520;11.228;2022-07-05T10:30:25;27.70;55.60
12720;DHT22;6424;48.520;11.228;2022-07-05T10:33:07;27.60;56.40
12720;DHT22;6424;48.520;11.228;2022-07-05T10:35:48;27.70;57.50
12720;DHT22;6424;48.520;11.228;2022-07-05T10:38:29;27.60;53.20
12720;DHT22;6424;48.520;11.228;2022-07-05T10:41:18;27.20;53.90
12720;DHT22;6424;48.520;11.228;2022-07-05T10:44:02;27.00;55.60
12720;DHT22;6424;48.520;11.228;2022-07-05T10:46:43;26.40;53.10
12720;DHT22;6424;48.520;11.228;2022-07-05T10:49:14;25.80;51.80
12720;DHT22;6424;48.520;11.228;2022-07-05T10:51:55;25.80;55.30
12720;DHT22;6424;48.520;11.228;2022-07-05T11:00:47;27.10;55.90
12720;DHT22;6424;48.520;11.228;2022-07-05T11:03:33;27.50;55.30
12720;DHT22;6424;48.520;11.228;2022-07-05T11:12:01;27.70;52.40
12720;DHT22;6424;48.520;11.228;2022-07-05T11:14:46;27.30;53.50
12720;DHT22;6424;48.520;11.228;2022-07-05T11:17:27;27.10;51.80
12720;DHT22;6424;48.520;11.228;2022-07-05T11:20:30;27.00;54.70
12720;DHT22;6424;48.520;11.228;2022-07-05T11:23:12;26.90;52.90
12720;DHT22;6424;48.520;11.228;2022-07-05T11:25:53;26.60;53.10
12720;DHT22;6424;48.520;11.228;2022-07-05T11:28:45;26.70;55.00
12720;DHT22;6424;48.520;11.228;2022-07-05T11:31:40;27.10;53.30
12720;DHT22;6424;48.520;11.228;2022-07-05T11:34:32;27.30;52.00
12720;DHT22;6424;48.520;11.228;2022-07-05T11:42:49;27.40;52.50
12720;DHT22;6424;48.520;11.228;2022-07-05T11:45:31;27.20;53.60
12720;DHT22;6424;48.520;11.228;2022-07-05T11:48:15;26.90;54.30
12720;DHT22;6424;48.520;11.228;2022-07-05T11:50:56;26.90;54.70
12720;DHT22;6424;48.520;11.228;2022-07-05T11:53:39;27.20;53.90
12720;DHT22;6424;48.520;11.228;2022-07-05T11:56:20;27.40;53.00
12720;DHT22;6424;48.520;11.228;2022-07-05T11:58:46;27.40;51.90
12720;DHT22;6424;48.520;11.228;2022-07-05T12:01:27;27.40;51.50
12720;DHT22;6424;48.520;11.228;2022-07-05T12:04:08;27.50;51.70
12720;DHT22;6424;48.520;11.228;2022-07-05T12:06:48;27.70;52.30
12720;DHT22;6424;48.520;11.228;2022-07-05T12:09:27;28.00;51.40
12720;DHT22;6424;48.520;11.228;2022-07-05T12:12:08;28.10;52.10
12720;DHT22;6424;48.520;11.228;2022-07-05T12:15:08;28.10;49.80
12720;DHT22;6424;48.520;11.228;2022-07-05T12:17:50;27.70;50.00
12720;DHT22;6424;48.520;11.228;2022-07-05T12:20:34;27.30;53.00
12720;DHT22;6424;48.520;11.228;2022-07-05T12:23:14;27.40;51.20
12720;DHT22;6424;48.520;11.228;2022-07-05T12:25:58;27.30;51.60
12720;DHT22;6424;48.520;11.228;2022-07-05T12:28:41;27.30;51.40
12720;DHT22;6424;48.520;11.228;2022-07-05T12:31:23;27.20;51.90
12720;DHT22;6424;48.520;11.228;2022-07-05T12:34:17;27.40;51.80
12720;DHT22;6424;48.520;11.228;2022-07-05T12:36:58;27.60;52.70
12720;DHT22;6424;48.520;11.228;2022-07-05T12:39:39;27.90;51.60
12720;DHT22;6424;48.520;11.228;2022-07-05T12:45:15;27.50;50.90
12720;DHT22;6424;48.520;11.228;2022-07-05T12:47:58;27.20;50.80
12720;DHT22;6424;48.520;11.228;2022-07-05T12:50:50;27.00;50.80
12720;DHT22;6424;48.520;11.228;2022-07-05T12:53:32;27.00;49.10
12720;DHT22;6424;48.520;11.228;2022-07-05T12:56:31;27.00;52.10
12720;DHT22;6424;48.520;11.228;2022-07-05T12:59:30;27.10;50.20
12720;DHT22;6424;48.520;11.228;2022-07-05T13:02:11;27.10;51.90
12720;DHT22;6424;48.520;11.228;2022-07-05T13:04:53;27.40;51.80
12720;DHT22;6424;48.520;11.228;2022-07-05T13:07:41;27.70;53.00
12720;DHT22;6424;48.520;11.228;2022-07-05T13:10:25;27.90;49.90
12720;DHT22;6424;48.520;11.228;2022-07-05T13:12:51;27.70;48.50
12720;DHT22;6424;48.520;11.228;2022-07-05T13:15:32;27.60;48.60
12720;DHT22;6424;48.520;11.228;2022-07-05T13:17:59;27.50;49.50
12720;DHT22;6424;48.520;11.228;2022-07-05T13:20:39;27.60;52.40
12720;DHT22;6424;48.520;11.228;2022-07-05T13:23:20;27.60;51.50
12720;DHT22;6424;48.520;11.228;2022-07-05T13:26:01;27.70;50.00
12720;DHT22;6424;48.520;11.228;2022-07-05T13:28:42;27.60;48.80
12720;DHT22;6424;48.520;11.228;2022-07-05T13:31:22;27.60;50.80
12720;DHT22;6424;48.520;11.228;2022-07-05T13:34:03;27.60;48.70
12720;DHT22;6424;48.520;11.228;2022-07-05T13:36:30;27.50;50.80
12720;DHT22;6424;48.520;11.228;2022-07-05T13:39:11;27.70;50.40
12720;DHT22;6424;48.520;11.228;2022-07-05T13:41:54;28.00;50.10
12720;DHT22;6424;48.520;11.228;2022-07-05T13:44:35;28.10;49.70
12720;DHT22;6424;48.520;11.228;2022-07-05T13:47:16;28.00;49.00
12720;DHT22;6424;48.520;11.228;2022-07-05T13:49:57;27.80;50.30
12720;DHT22;6424;48.520;11.228;2022-07-05T13:52:56;27.70;50.80
12720;DHT22;6424;48.520;11.228;2022-07-05T13:55:37;27.70;49.50
12720;DHT22;6424;48.520;11.228;2022-07-05T13:58:18;27.20;49.30
12720;DHT22;6424;48.520;11.228;2022-07-05T14:01:00;27.00;51.40
12720;DHT22;6424;48.520;11.228;2022-07-05T14:03:41;27.10;51.60
12720;DHT22;6424;48.520;11.228;2022-07-05T14:06:22;27.20;50.30
12720;DHT22;6424;48.520;11.228;2022-07-05T14:09:03;27.40;49.60
12720;DHT22;6424;48.520;11.228;2022-07-05T14:11:44;27.20;48.20
12720;DHT22;6424;48.520;11.228;2022-07-05T14:14:24;27.20;50.90
12720;DHT22;6424;48.520;11.228;2022-07-05T14:17:05;27.40;50.90
12720;DHT22;6424;48.520;11.228;2022-07-05T14:19:46;27.60;50.70
12720;DHT22;6424;48.520;11.228;2022-07-05T14:22:27;27.70;49.10
12720;DHT22;6424;48.520;11.228;2022-07-05T14:25:08;27.80;50.00
12720;DHT22;6424;48.520;11.228;2022-07-05T14:27:48;28.00;51.30
12720;DHT22;6424;48.520;11.228;2022-07-05T14:30:29;28.10;50.20
12720;DHT22;6424;48.520;11.228;2022-07-05T14:32:55;28.00;49.30
12720;DHT22;6424;48.520;11.228;2022-07-05T14:35:36;27.90;49.20
12720;DHT22;6424;48.520;11.228;2022-07-05T14:38:17;27.80;48.50
12720;DHT22;6424;48.520;11.228;2022-07-05T14:40:43;27.90;49.60
12720;DHT22;6424;48.520;11.228;2022-07-05T14:43:24;27.80;48.80
12720;DHT22;6424;48.520;11.228;2022-07-05T14:46:04;27.80;50.00
12720;DHT22;6424;48.520;11.228;2022-07-05T14:48:48;27.90;49.60
12720;DHT22;6424;48.520;11.228;2022-07-05T14:51:29;27.80;49.40
12720;DHT22;6424;48.520;11.228;2022-07-05T14:54:10;27.60;50.10
12720;DHT22;6424;48.520;11.228;2022-07-05T14:56:50;27.40;49.40
12720;DHT22;6424;48.520;11.228;2022-07-05T14:59:31;27.40;49.20
12720;DHT22;6424;48.520;11.228;2022-07-05T15:01:57;27.50;50.70
12720;DHT22;6424;48.520;11.228;2022-07-05T15:04:38;27.30;49.60
12720;DHT22;6424;48.520;11.228;2022-07-05T15:07:19;27.10;51.90
12720;DHT22;6424;48.520;11.228;2022-07-05T15:10:02;26.90;51.30
12720;DHT22;6424;48.520;11.228;2022-07-05T15:12:43;26.60;52.00
12720;DHT22;6424;48.520;11.228;2022-07-05T15:15:24;26.40;52.00
12720;DHT22;6424;48.520;11.228;2022-07-05T15:18:05;26.20;53.40
12720;DHT22;6424;48.520;11.228;2022-07-05T15:20:45;26.40;53.20
12720;DHT22;6424;48.520;11.228;2022-07-05T15:23:27;26.50;53.00
12720;DHT22;6424;48.520;11.228;2022-07-05T15:25:55;26.40;52.00
12720;DHT22;6424;48.520;11.228;2022-07-05T15:28:38;26.30;52.20
12720;DHT22;6424;48.520;11.228;2022-07-05T15:31:18;26.20;52.80
12720;DHT22;6424;48.520;11.228;2022-07-05T15:33:59;26.30;53.90
12720;DHT22;6424;48.520;11.228;2022-07-05T15:36:41;26.50;53.40
12720;DHT22;6424;48.520;11.228;2022-07-05T15:39:21;26.70;53.30
12720;DHT22;6424;48.520;11.228;2022-07-05T15:42:03;26.90;50.70
12720;DHT22;6424;48.520;11.228;2022-07-05T15:44:44;27.00;50.80
12720;DHT22;6424;48.520;11.228;2022-07-05T15:47:25;26.90;51.40
12720;DHT22;6424;48.520;11.228;2022-07-05T15:50:08;26.80;52.00
12720;DHT22;6424;48.520;11.228;2022-07-05T15:52:50;26.60;50.50
12720;DHT22;6424;48.520;11.228;2022-07-05T15:55:31;26.50;52.10
12720;DHT22;6424;48.520;11.228;2022-07-05T15:58:12;26.40;52.40
12720;DHT22;6424;48.520;11.228;2022-07-05T16:00:53;26.30;53.20
12720;DHT22;6424;48.520;11.228;2022-07-05T16:03:34;26.00;53.00
12720;DHT22;6424;48.520;11.228;2022-07-05T16:06:14;25.90;54.00
12720;DHT22;6424;48.520;11.228;2022-07-05T16:08:55;25.70;54.90
12720;DHT22;6424;48.520;11.228;2022-07-05T16:11:36;25.60;55.10
12720;DHT22;6424;48.520;11.228;2022-07-05T16:14:17;25.40;55.00
12720;DHT22;6424;48.520;11.228;2022-07-05T16:16:43;25.50;54.00
12720;DHT22;6424;48.520;11.228;2022-07-05T16:19:24;25.50;53.90
12720;DHT22;6424;48.520;11.228;2022-07-05T16:22:05;25.50;53.50
12720;DHT22;6424;48.520;11.228;2022-07-05T16:24:46;25.50;53.60
12720;DHT22;6424;48.520;11.228;2022-07-05T16:27:27;25.50;53.90
12720;DHT22;6424;48.520;11.228;2022-07-05T16:30:08;25.50;55.10
12720;DHT22;6424;48.520;11.228;2022-07-05T16:32:49;25.60;53.10
12720;DHT22;6424;48.520;11.228;2022-07-05T16:35:29;25.80;54.20
12720;DHT22;6424;48.520;11.228;2022-07-05T16:38:10;26.00;54.50
12720;DHT22;6424;48.520;11.228;2022-07-05T16:40:36;26.10;55.90
12720;DHT22;6424;48.520;11.228;2022-07-05T16:43:17;26.10;54.70
12720;DHT22;6424;48.520;11.228;2022-07-05T16:45:42;26.10;54.30
12720;DHT22;6424;48.520;11.228;2022-07-05T16:48:23;26.00;54.00
12720;DHT22;6424;48.520;11.228;2022-07-05T16:51:05;26.10;53.40
12720;DHT22;6424;48.520;11.228;2022-07-05T16:53:48;26.20;54.00
12720;DHT22;6424;48.520;11.228;2022-07-05T16:56:29;26.30;53.70
12720;DHT22;6424;48.520;11.228;2022-07-05T16:59:10;26.30;53.40
12720;DHT22;6424;48.520;11.228;2022-07-05T17:01:51;26.40;52.70
12720;DHT22;6424;48.520;11.228;2022-07-05T17:04:32;26.50;52.40
12720;DHT22;6424;48.520;11.228;2022-07-05T17:07:13;26.40;52.60
12720;DHT22;6424;48.520;11.228;2022-07-05T17:09:53;26.40;52.40
12720;DHT22;6424;48.520;11.228;2022-07-05T17:12:34;26.30;51.70
12720;DHT22;6424;48.520;11.228;2022-07-05T17:15:15;26.20;52.50